DAL983 SKBO-KATL
Flight info
| Callsign | DAL983 |
|---|---|
| Flight time | 4h 34m |
| Altitude | 30000 |
| Route | OSUSU4R GIKPU UQ120 PADUD/N0486F290 DCT DIBAM/N0485F300 DCT KAGEM UL417 NEVPA/N0480F320 UL417 BORDO Y259 OCTAL/N0475F340 Q77 MJAMS/N0475F330 Q77 SHRKS/N0475F340 DCT LAIRI DCT LARZZ JJEDI4 |
| Aircraft | B739/M-SDE2E3FGHIRWXY/LB1 |
Departure
| Time | 2026-05-05 19:34 |
|---|---|
| Airport | El Dorado International Airport (SKBO) |
Arrival
| Time | 2026-05-06 00:09 |
|---|---|
| Airport | Hartsfield Jackson Atlanta International Airport (KATL) |
| Time | Latitude | Longitude | Altitude | Speed | Heading |
|---|---|---|---|---|---|
| 2026-05-05 19:08 | 4.69828 | -74.14589 | 8369 ft | 0 kts | 66° |
| 2026-05-05 19:20 | 4.69818 | -74.14608 | 8369 ft | 4 kts | 52° |
| 2026-05-05 19:20 | 4.69800 | -74.14624 | 8369 ft | 4 kts | 14° |
| 2026-05-05 19:20 | 4.69782 | -74.14622 | 8369 ft | 2 kts | 309° |
| 2026-05-05 19:21 | 4.69778 | -74.14617 | 8369 ft | 0 kts | 308° |
| 2026-05-05 19:25 | 4.69782 | -74.14623 | 8369 ft | 3 kts | 308° |
| 2026-05-05 19:26 | 4.69806 | -74.14654 | 8369 ft | 8 kts | 308° |
| 2026-05-05 19:26 | 4.69853 | -74.14714 | 8369 ft | 13 kts | 308° |
| 2026-05-05 19:26 | 4.69929 | -74.14770 | 8369 ft | 14 kts | 6° |
| 2026-05-05 19:26 | 4.70012 | -74.14725 | 8369 ft | 14 kts | 38° |
| 2026-05-05 19:27 | 4.70084 | -74.14668 | 8369 ft | 13 kts | 38° |
| 2026-05-05 19:27 | 4.70154 | -74.14612 | 8369 ft | 13 kts | 38° |
| 2026-05-05 19:27 | 4.70224 | -74.14561 | 8369 ft | 12 kts | 32° |
| 2026-05-05 19:27 | 4.70295 | -74.14514 | 8369 ft | 12 kts | 37° |
| 2026-05-05 19:28 | 4.70360 | -74.14462 | 8369 ft | 12 kts | 39° |
| 2026-05-05 19:28 | 4.70423 | -74.14413 | 8369 ft | 11 kts | 33° |
| 2026-05-05 19:28 | 4.70494 | -74.14426 | 8369 ft | 11 kts | 316° |
| 2026-05-05 19:28 | 4.70544 | -74.14483 | 8369 ft | 11 kts | 308° |
| 2026-05-05 19:29 | 4.70589 | -74.14542 | 8369 ft | 10 kts | 307° |
| 2026-05-05 19:29 | 4.70633 | -74.14599 | 8370 ft | 10 kts | 307° |
| 2026-05-05 19:29 | 4.70675 | -74.14655 | 8369 ft | 10 kts | 307° |
| 2026-05-05 19:29 | 4.70718 | -74.14712 | 8369 ft | 11 kts | 307° |
| 2026-05-05 19:30 | 4.70762 | -74.14770 | 8369 ft | 10 kts | 307° |
| 2026-05-05 19:30 | 4.70805 | -74.14826 | 8369 ft | 10 kts | 307° |
| 2026-05-05 19:30 | 4.70847 | -74.14884 | 8369 ft | 11 kts | 306° |
| 2026-05-05 19:30 | 4.70898 | -74.14952 | 8369 ft | 13 kts | 308° |
| 2026-05-05 19:31 | 4.70957 | -74.15029 | 8369 ft | 15 kts | 307° |
| 2026-05-05 19:31 | 4.71019 | -74.15113 | 8369 ft | 15 kts | 307° |
| 2026-05-05 19:31 | 4.71082 | -74.15192 | 8369 ft | 14 kts | 319° |
| 2026-05-05 19:31 | 4.71171 | -74.15227 | 8369 ft | 14 kts | 348° |
| 2026-05-05 19:32 | 4.71260 | -74.15237 | 8369 ft | 10 kts | 355° |
| 2026-05-05 19:32 | 4.71317 | -74.15208 | 8369 ft | 9 kts | 57° |
| 2026-05-05 19:32 | 4.71296 | -74.15152 | 8369 ft | 9 kts | 130° |
| 2026-05-05 19:32 | 4.71277 | -74.15129 | 8368 ft | 15 kts | 128° |
| 2026-05-05 19:33 | 4.71106 | -74.14901 | 8366 ft | 66 kts | 127° |
| 2026-05-05 19:33 | 4.70732 | -74.14411 | 8369 ft | 110 kts | 127° |
| 2026-05-05 19:33 | 4.70188 | -74.13690 | 8367 ft | 147 kts | 127° |
| 2026-05-05 19:33 | 4.69500 | -74.12792 | 8368 ft | 177 kts | 130° |
| 2026-05-05 19:34 | 4.68675 | -74.11790 | 8529 ft | 190 kts | 131° |
| 2026-05-05 19:34 | 4.67831 | -74.10736 | 8810 ft | 203 kts | 127° |
| 2026-05-05 19:34 | 4.67002 | -74.09534 | 9124 ft | 213 kts | 115° |
| 2026-05-05 19:35 | 4.66982 | -74.06777 | 10122 ft | 211 kts | 51° |
| 2026-05-05 19:35 | 4.68280 | -74.06006 | 10228 ft | 230 kts | 12° |
| 2026-05-05 19:35 | 4.69903 | -74.05987 | 10355 ft | 246 kts | 348° |
| 2026-05-05 19:35 | 4.71475 | -74.06686 | 10632 ft | 248 kts | 337° |
| 2026-05-05 19:36 | 4.73113 | -74.07237 | 10812 ft | 253 kts | 352° |
| 2026-05-05 19:36 | 4.74855 | -74.07370 | 11183 ft | 248 kts | 5° |
| 2026-05-05 19:36 | 4.76585 | -74.07165 | 11405 ft | 253 kts | 16° |
| 2026-05-05 19:36 | 4.78212 | -74.06697 | 11989 ft | 243 kts | 22° |
| 2026-05-05 19:37 | 4.79858 | -74.06130 | 12142 ft | 257 kts | 22° |
| 2026-05-05 19:37 | 4.81588 | -74.05530 | 12275 ft | 269 kts | 21° |
| 2026-05-05 19:37 | 4.83398 | -74.04909 | 12458 ft | 279 kts | 21° |
| 2026-05-05 19:37 | 4.85245 | -74.04281 | 12818 ft | 283 kts | 22° |
| 2026-05-05 19:38 | 4.87155 | -74.03630 | 12977 ft | 299 kts | 21° |
| 2026-05-05 19:38 | 4.89181 | -74.02941 | 13131 ft | 316 kts | 21° |
| 2026-05-05 19:38 | 4.91323 | -74.02215 | 13229 ft | 332 kts | 21° |
| 2026-05-05 19:38 | 4.93531 | -74.01467 | 13331 ft | 347 kts | 21° |
| 2026-05-05 19:39 | 4.95869 | -74.00676 | 13421 ft | 361 kts | 21° |
| 2026-05-05 19:39 | 4.98295 | -73.99854 | 13506 ft | 375 kts | 21° |
| 2026-05-05 19:39 | 5.00813 | -73.99001 | 13569 ft | 387 kts | 21° |
| 2026-05-05 19:39 | 5.03430 | -73.98175 | 13624 ft | 400 kts | 18° |
| 2026-05-05 19:40 | 5.06157 | -73.97474 | 13716 ft | 409 kts | 16° |
| 2026-05-05 19:40 | 5.08952 | -73.96814 | 13966 ft | 414 kts | 15° |
| 2026-05-05 19:40 | 5.11758 | -73.96155 | 14275 ft | 415 kts | 16° |
| 2026-05-05 19:40 | 5.14570 | -73.95480 | 14585 ft | 415 kts | 16° |
| 2026-05-05 19:41 | 5.17383 | -73.94790 | 14887 ft | 417 kts | 16° |
| 2026-05-05 19:41 | 5.20198 | -73.94091 | 15216 ft | 418 kts | 17° |
| 2026-05-05 19:41 | 5.23038 | -73.93398 | 15520 ft | 420 kts | 16° |
| 2026-05-05 19:41 | 5.25872 | -73.92754 | 15735 ft | 422 kts | 15° |
| 2026-05-05 19:42 | 5.28731 | -73.92127 | 16162 ft | 421 kts | 15° |
| 2026-05-05 19:42 | 5.31605 | -73.91500 | 16368 ft | 425 kts | 15° |
| 2026-05-05 19:42 | 5.34506 | -73.90864 | 16621 ft | 428 kts | 15° |
| 2026-05-05 19:42 | 5.37417 | -73.90222 | 16921 ft | 428 kts | 15° |
| 2026-05-05 19:43 | 5.39349 | -73.89794 | 17113 ft | 429 kts | 15° |
| 2026-05-05 19:43 | 5.40470 | -73.89545 | 17205 ft | 430 kts | 15° |
| 2026-05-05 19:43 | 5.43402 | -73.88892 | 17437 ft | 432 kts | 15° |
| 2026-05-05 19:43 | 5.46335 | -73.88237 | 17699 ft | 432 kts | 15° |
| 2026-05-05 19:44 | 5.49278 | -73.87580 | 17975 ft | 433 kts | 15° |
| 2026-05-05 19:44 | 5.52232 | -73.86920 | 18204 ft | 435 kts | 14° |
| 2026-05-05 19:44 | 5.55189 | -73.86259 | 18405 ft | 437 kts | 14° |
| 2026-05-05 19:44 | 5.58164 | -73.85594 | 18583 ft | 438 kts | 14° |
| 2026-05-05 19:45 | 5.61104 | -73.84937 | 18782 ft | 439 kts | 14° |
| 2026-05-05 19:45 | 5.64100 | -73.84268 | 18966 ft | 440 kts | 14° |
| 2026-05-05 19:45 | 5.67095 | -73.83598 | 19164 ft | 442 kts | 14° |
| 2026-05-05 19:45 | 5.70099 | -73.82927 | 19338 ft | 443 kts | 14° |
| 2026-05-05 19:46 | 5.73117 | -73.82252 | 19499 ft | 444 kts | 14° |
| 2026-05-05 19:46 | 5.76141 | -73.81576 | 19676 ft | 446 kts | 14° |
| 2026-05-05 19:46 | 5.79183 | -73.80895 | 19822 ft | 447 kts | 14° |
| 2026-05-05 19:46 | 5.82187 | -73.80224 | 19960 ft | 448 kts | 14° |
| 2026-05-05 19:47 | 5.85235 | -73.79542 | 20109 ft | 450 kts | 14° |
| 2026-05-05 19:47 | 5.88303 | -73.78855 | 20278 ft | 451 kts | 14° |
| 2026-05-05 19:47 | 5.91368 | -73.78170 | 20442 ft | 451 kts | 14° |
| 2026-05-05 19:47 | 5.94441 | -73.77482 | 20604 ft | 453 kts | 14° |
| 2026-05-05 19:48 | 5.97521 | -73.76792 | 20758 ft | 454 kts | 14° |
| 2026-05-05 19:48 | 6.00613 | -73.76101 | 20912 ft | 455 kts | 14° |
| 2026-05-05 19:48 | 6.03705 | -73.75414 | 21053 ft | 456 kts | 13° |
| 2026-05-05 19:48 | 6.06823 | -73.74758 | 21174 ft | 457 kts | 13° |
| 2026-05-05 19:49 | 6.09947 | -73.74122 | 21323 ft | 458 kts | 12° |
| 2026-05-05 19:49 | 6.12021 | -73.73703 | 21414 ft | 459 kts | 12° |
| 2026-05-05 19:49 | 6.16170 | -73.72863 | 21591 ft | 460 kts | 12° |
| 2026-05-05 19:49 | 6.19317 | -73.72222 | 21716 ft | 461 kts | 12° |
| 2026-05-05 19:50 | 6.22477 | -73.71575 | 21844 ft | 462 kts | 13° |
| 2026-05-05 19:50 | 6.25638 | -73.70925 | 21967 ft | 463 kts | 13° |
| 2026-05-05 19:50 | 6.27725 | -73.70495 | 22059 ft | 463 kts | 12° |
| 2026-05-05 19:50 | 6.28805 | -73.70273 | 22102 ft | 463 kts | 12° |
| 2026-05-05 19:51 | 6.31962 | -73.69623 | 22216 ft | 464 kts | 12° |
| 2026-05-05 19:51 | 6.35137 | -73.68970 | 22343 ft | 465 kts | 12° |
| 2026-05-05 19:51 | 6.38312 | -73.68316 | 22446 ft | 466 kts | 12° |
| 2026-05-05 19:51 | 6.41494 | -73.67661 | 22576 ft | 466 kts | 12° |
| 2026-05-05 19:52 | 6.44640 | -73.67013 | 22677 ft | 467 kts | 12° |
| 2026-05-05 19:52 | 6.47826 | -73.66357 | 22824 ft | 467 kts | 12° |
| 2026-05-05 19:52 | 6.51011 | -73.65703 | 22945 ft | 467 kts | 12° |
| 2026-05-05 19:52 | 6.54204 | -73.65048 | 23017 ft | 468 kts | 12° |
| 2026-05-05 19:53 | 6.57404 | -73.64392 | 23083 ft | 470 kts | 12° |
| 2026-05-05 19:53 | 6.60620 | -73.63734 | 23125 ft | 471 kts | 12° |
| 2026-05-05 19:53 | 6.63840 | -73.63073 | 23192 ft | 473 kts | 12° |
| 2026-05-05 19:53 | 6.67061 | -73.62413 | 23264 ft | 474 kts | 12° |
| 2026-05-05 19:54 | 6.70257 | -73.61757 | 23344 ft | 474 kts | 12° |
| 2026-05-05 19:54 | 6.73536 | -73.61084 | 23416 ft | 475 kts | 12° |
| 2026-05-05 19:54 | 6.76728 | -73.60429 | 23498 ft | 475 kts | 12° |
| 2026-05-05 19:54 | 6.79965 | -73.59764 | 23574 ft | 475 kts | 12° |
| 2026-05-05 19:55 | 6.83207 | -73.59098 | 23630 ft | 475 kts | 12° |
| 2026-05-05 19:55 | 6.86446 | -73.58433 | 23692 ft | 476 kts | 12° |
| 2026-05-05 19:55 | 6.89701 | -73.57764 | 23740 ft | 476 kts | 12° |
| 2026-05-05 19:55 | 6.92948 | -73.57098 | 23808 ft | 476 kts | 12° |
| 2026-05-05 19:56 | 6.96197 | -73.56443 | 23865 ft | 477 kts | 10° |
| 2026-05-05 19:56 | 6.99501 | -73.56091 | 23900 ft | 478 kts | 1° |
| 2026-05-05 19:56 | 7.02832 | -73.56201 | 23966 ft | 479 kts | 358° |
| 2026-05-05 19:56 | 7.06157 | -73.56391 | 24024 ft | 479 kts | 357° |
| 2026-05-05 19:57 | 7.09488 | -73.56590 | 24093 ft | 479 kts | 357° |
| 2026-05-05 19:57 | 7.11691 | -73.56719 | 24136 ft | 479 kts | 357° |
| 2026-05-05 19:57 | 7.16159 | -73.56962 | 24211 ft | 480 kts | 358° |
| 2026-05-05 19:57 | 7.19494 | -73.57132 | 24247 ft | 481 kts | 358° |
| 2026-05-05 19:58 | 7.21718 | -73.57241 | 24257 ft | 481 kts | 358° |
| 2026-05-05 19:58 | 7.23130 | -73.57309 | 24257 ft | 482 kts | 358° |
| 2026-05-05 19:58 | 7.26482 | -73.57468 | 24278 ft | 483 kts | 358° |
| 2026-05-05 19:58 | 7.29844 | -73.57626 | 24290 ft | 484 kts | 358° |
| 2026-05-05 19:59 | 7.33216 | -73.57785 | 24314 ft | 485 kts | 358° |
| 2026-05-05 19:59 | 7.36587 | -73.57944 | 24350 ft | 485 kts | 358° |
| 2026-05-05 19:59 | 7.39963 | -73.58103 | 24421 ft | 484 kts | 358° |
| 2026-05-05 19:59 | 7.43328 | -73.58263 | 24514 ft | 483 kts | 358° |
| 2026-05-05 20:00 | 7.46689 | -73.58424 | 24542 ft | 484 kts | 358° |
| 2026-05-05 20:00 | 7.50062 | -73.58584 | 24558 ft | 485 kts | 358° |
| 2026-05-05 20:00 | 7.52293 | -73.58690 | 24585 ft | 485 kts | 358° |
| 2026-05-05 20:00 | 7.56772 | -73.58904 | 24652 ft | 485 kts | 358° |
| 2026-05-05 20:01 | 7.60137 | -73.59064 | 24765 ft | 483 kts | 358° |
| 2026-05-05 20:01 | 7.62406 | -73.59172 | 24812 ft | 483 kts | 358° |
| 2026-05-05 20:01 | 7.65720 | -73.59330 | 24869 ft | 483 kts | 358° |
| 2026-05-05 20:01 | 7.69087 | -73.59490 | 24913 ft | 484 kts | 358° |
| 2026-05-05 20:02 | 7.72456 | -73.59651 | 24950 ft | 484 kts | 358° |
| 2026-05-05 20:02 | 7.75823 | -73.59811 | 24989 ft | 485 kts | 358° |
| 2026-05-05 20:02 | 7.79197 | -73.59972 | 25029 ft | 485 kts | 358° |
| 2026-05-05 20:02 | 7.82574 | -73.60133 | 25066 ft | 485 kts | 358° |
| 2026-05-05 20:03 | 7.85954 | -73.60294 | 25096 ft | 486 kts | 358° |
| 2026-05-05 20:03 | 7.89338 | -73.60455 | 25125 ft | 487 kts | 358° |
| 2026-05-05 20:03 | 7.92682 | -73.60615 | 25145 ft | 487 kts | 358° |
| 2026-05-05 20:03 | 7.96076 | -73.60777 | 25184 ft | 487 kts | 358° |
| 2026-05-05 20:04 | 7.99468 | -73.60939 | 25226 ft | 487 kts | 358° |
| 2026-05-05 20:04 | 8.02856 | -73.61100 | 25266 ft | 487 kts | 358° |
| 2026-05-05 20:04 | 8.06243 | -73.61262 | 25320 ft | 487 kts | 358° |
| 2026-05-05 20:04 | 8.09629 | -73.61424 | 25392 ft | 486 kts | 358° |
| 2026-05-05 20:05 | 8.13006 | -73.61585 | 25469 ft | 485 kts | 358° |
| 2026-05-05 20:05 | 8.16377 | -73.61746 | 25571 ft | 484 kts | 358° |
| 2026-05-05 20:05 | 8.19697 | -73.61953 | 25703 ft | 482 kts | 354° |
| 2026-05-05 20:05 | 8.19853 | -73.61970 | 25708 ft | 482 kts | 353° |
| 2026-05-05 20:06 | 8.23215 | -73.62602 | 25790 ft | 482 kts | 347° |
| 2026-05-05 20:06 | 8.26484 | -73.63375 | 25886 ft | 482 kts | 347° |
| 2026-05-05 20:06 | 8.29740 | -73.64169 | 25969 ft | 481 kts | 347° |
| 2026-05-05 20:06 | 8.33000 | -73.64964 | 26037 ft | 481 kts | 347° |
| 2026-05-05 20:07 | 8.36259 | -73.65748 | 26117 ft | 481 kts | 347° |
| 2026-05-05 20:07 | 8.39524 | -73.66523 | 26180 ft | 482 kts | 347° |
| 2026-05-05 20:07 | 8.42783 | -73.67287 | 26265 ft | 481 kts | 347° |
| 2026-05-05 20:07 | 8.46047 | -73.68047 | 26346 ft | 481 kts | 347° |
| 2026-05-05 20:08 | 8.49312 | -73.68805 | 26422 ft | 481 kts | 347° |
| 2026-05-05 20:08 | 8.52576 | -73.69562 | 26487 ft | 482 kts | 347° |
| 2026-05-05 20:08 | 8.55847 | -73.70321 | 26553 ft | 482 kts | 347° |
| 2026-05-05 20:08 | 8.59116 | -73.71080 | 26618 ft | 482 kts | 347° |
| 2026-05-05 20:09 | 8.62386 | -73.71840 | 26698 ft | 482 kts | 347° |
| 2026-05-05 20:09 | 8.65612 | -73.72591 | 26757 ft | 482 kts | 347° |
| 2026-05-05 20:09 | 8.68881 | -73.73352 | 26834 ft | 482 kts | 347° |
| 2026-05-05 20:09 | 8.72154 | -73.74114 | 26904 ft | 482 kts | 347° |
| 2026-05-05 20:10 | 8.75424 | -73.74875 | 26978 ft | 482 kts | 347° |
| 2026-05-05 20:10 | 8.78695 | -73.75637 | 27049 ft | 482 kts | 347° |
| 2026-05-05 20:10 | 8.81962 | -73.76398 | 27139 ft | 482 kts | 347° |
| 2026-05-05 20:10 | 8.85233 | -73.77160 | 27221 ft | 482 kts | 347° |
| 2026-05-05 20:11 | 8.88495 | -73.77920 | 27311 ft | 481 kts | 347° |
| 2026-05-05 20:11 | 8.91761 | -73.78681 | 27414 ft | 481 kts | 347° |
| 2026-05-05 20:11 | 8.95024 | -73.79441 | 27481 ft | 481 kts | 347° |
| 2026-05-05 20:11 | 8.98285 | -73.80201 | 27561 ft | 481 kts | 347° |
| 2026-05-05 20:12 | 9.01555 | -73.80963 | 27638 ft | 481 kts | 347° |
| 2026-05-05 20:12 | 9.04781 | -73.81716 | 27728 ft | 481 kts | 347° |
| 2026-05-05 20:12 | 9.08043 | -73.82477 | 27819 ft | 480 kts | 347° |
| 2026-05-05 20:12 | 9.11302 | -73.83237 | 27901 ft | 480 kts | 347° |
| 2026-05-05 20:13 | 9.13505 | -73.83751 | 27951 ft | 480 kts | 347° |
| 2026-05-05 20:13 | 9.14741 | -73.84039 | 27979 ft | 480 kts | 347° |
| 2026-05-05 20:13 | 9.18004 | -73.84801 | 28051 ft | 480 kts | 347° |
| 2026-05-05 20:14 | 9.24522 | -73.86322 | 28188 ft | 481 kts | 347° |
| 2026-05-05 20:14 | 9.31048 | -73.87846 | 28364 ft | 481 kts | 347° |
| 2026-05-05 20:15 | 9.37584 | -73.89374 | 28524 ft | 481 kts | 347° |
| 2026-05-05 20:15 | 9.44099 | -73.90957 | 28681 ft | 482 kts | 345° |
| 2026-05-05 20:16 | 9.50478 | -73.92896 | 28870 ft | 481 kts | 342° |
| 2026-05-05 20:16 | 9.53666 | -73.93922 | 28980 ft | 481 kts | 342° |
| 2026-05-05 20:16 | 9.56857 | -73.94950 | 29082 ft | 481 kts | 342° |
| 2026-05-05 20:16 | 9.60051 | -73.95970 | 29186 ft | 480 kts | 342° |
| 2026-05-05 20:17 | 9.63253 | -73.96983 | 29309 ft | 480 kts | 343° |
| 2026-05-05 20:17 | 9.66440 | -73.97984 | 29419 ft | 480 kts | 343° |
| 2026-05-05 20:17 | 9.69634 | -73.98982 | 29541 ft | 479 kts | 343° |
| 2026-05-05 20:17 | 9.72782 | -73.99962 | 29673 ft | 479 kts | 343° |
| 2026-05-05 20:18 | 9.75960 | -74.00952 | 29790 ft | 478 kts | 343° |
| 2026-05-05 20:18 | 9.82311 | -74.02930 | 29819 ft | 476 kts | 343° |
| 2026-05-05 20:19 | 9.88637 | -74.04902 | 29840 ft | 475 kts | 343° |
| 2026-05-05 20:19 | 9.94962 | -74.06876 | 29833 ft | 475 kts | 343° |
| 2026-05-05 20:20 | 10.01270 | -74.08846 | 29845 ft | 474 kts | 343° |
| 2026-05-05 20:20 | 10.06519 | -74.10485 | 29841 ft | 474 kts | 343° |
| 2026-05-05 20:21 | 10.10870 | -74.11844 | 29843 ft | 474 kts | 343° |
| 2026-05-05 20:21 | 10.17165 | -74.13811 | 29844 ft | 473 kts | 343° |
| 2026-05-05 20:22 | 10.23464 | -74.15781 | 29843 ft | 473 kts | 343° |
| 2026-05-05 20:22 | 10.29760 | -74.17750 | 29853 ft | 472 kts | 343° |
| 2026-05-05 20:23 | 10.36000 | -74.19703 | 29847 ft | 472 kts | 343° |
| 2026-05-05 20:23 | 10.42272 | -74.21666 | 29857 ft | 471 kts | 343° |
| 2026-05-05 20:24 | 10.48543 | -74.23630 | 29857 ft | 471 kts | 343° |
| 2026-05-05 20:24 | 10.54810 | -74.25593 | 29855 ft | 471 kts | 343° |
| 2026-05-05 20:25 | 10.61077 | -74.27558 | 29855 ft | 471 kts | 343° |
| 2026-05-05 20:25 | 10.67326 | -74.29518 | 29865 ft | 470 kts | 343° |
| 2026-05-05 20:26 | 10.73583 | -74.31480 | 29860 ft | 470 kts | 343° |
| 2026-05-05 20:26 | 10.79836 | -74.33442 | 29854 ft | 470 kts | 343° |
| 2026-05-05 20:27 | 10.86041 | -74.35391 | 29857 ft | 469 kts | 343° |
| 2026-05-05 20:27 | 10.92275 | -74.37349 | 29857 ft | 469 kts | 343° |
| 2026-05-05 20:28 | 10.97496 | -74.38990 | 29857 ft | 468 kts | 343° |
| 2026-05-05 20:28 | 11.01898 | -74.40374 | 29860 ft | 468 kts | 343° |
| 2026-05-05 20:29 | 11.08118 | -74.42330 | 29861 ft | 466 kts | 343° |
| 2026-05-05 20:29 | 11.14313 | -74.44279 | 29859 ft | 465 kts | 343° |
| 2026-05-05 20:30 | 11.20446 | -74.46209 | 29861 ft | 464 kts | 343° |
| 2026-05-05 20:30 | 11.26610 | -74.48150 | 29863 ft | 463 kts | 343° |
| 2026-05-05 20:31 | 11.32765 | -74.50089 | 29864 ft | 463 kts | 342° |
| 2026-05-05 20:31 | 11.38922 | -74.52030 | 29865 ft | 462 kts | 342° |
| 2026-05-05 20:32 | 11.45080 | -74.53971 | 29870 ft | 462 kts | 342° |
| 2026-05-05 20:32 | 11.51184 | -74.55897 | 29874 ft | 462 kts | 342° |
| 2026-05-05 20:33 | 11.57325 | -74.57835 | 29875 ft | 462 kts | 342° |
| 2026-05-05 20:33 | 11.63464 | -74.59774 | 29872 ft | 461 kts | 342° |
| 2026-05-05 20:34 | 11.69598 | -74.61712 | 29878 ft | 461 kts | 342° |
| 2026-05-05 20:34 | 11.75695 | -74.63639 | 29877 ft | 460 kts | 342° |
| 2026-05-05 20:35 | 11.81807 | -74.65572 | 29882 ft | 460 kts | 342° |
| 2026-05-05 20:35 | 11.86891 | -74.67181 | 29878 ft | 459 kts | 342° |
| 2026-05-05 20:36 | 11.91314 | -74.68580 | 29882 ft | 459 kts | 342° |
| 2026-05-05 20:36 | 11.97423 | -74.70505 | 29884 ft | 459 kts | 342° |
| 2026-05-05 20:37 | 12.03502 | -74.72392 | 29887 ft | 459 kts | 342° |
| 2026-05-05 20:37 | 12.09613 | -74.74287 | 29886 ft | 459 kts | 342° |
| 2026-05-05 20:38 | 12.15727 | -74.76188 | 29886 ft | 459 kts | 342° |
| 2026-05-05 20:38 | 12.21838 | -74.78092 | 29885 ft | 459 kts | 342° |
| 2026-05-05 20:39 | 12.27947 | -74.79996 | 29890 ft | 459 kts | 342° |
| 2026-05-05 20:39 | 12.34022 | -74.81890 | 29893 ft | 459 kts | 342° |
| 2026-05-05 20:40 | 12.40134 | -74.83796 | 29893 ft | 459 kts | 342° |
| 2026-05-05 20:40 | 12.46245 | -74.85704 | 29900 ft | 459 kts | 342° |
| 2026-05-05 20:41 | 12.52354 | -74.87612 | 29898 ft | 459 kts | 342° |
| 2026-05-05 20:41 | 12.58473 | -74.89523 | 29901 ft | 459 kts | 342° |
| 2026-05-05 20:42 | 12.64552 | -74.91424 | 29898 ft | 459 kts | 342° |
| 2026-05-05 20:42 | 12.70666 | -74.93336 | 29904 ft | 459 kts | 342° |
| 2026-05-05 20:43 | 12.74747 | -74.94611 | 29903 ft | 458 kts | 342° |
| 2026-05-05 20:43 | 12.80147 | -74.96301 | 29899 ft | 458 kts | 342° |
| 2026-05-05 20:44 | 12.86254 | -74.98215 | 29906 ft | 458 kts | 341° |
| 2026-05-05 20:44 | 12.92327 | -75.00118 | 29910 ft | 458 kts | 342° |
| 2026-05-05 20:45 | 13.01491 | -75.02990 | 29908 ft | 459 kts | 341° |
| 2026-05-05 20:45 | 13.07603 | -75.04908 | 29909 ft | 459 kts | 342° |
| 2026-05-05 20:46 | 13.13680 | -75.06815 | 29913 ft | 459 kts | 342° |
| 2026-05-05 20:46 | 13.19798 | -75.08736 | 29914 ft | 459 kts | 342° |
| 2026-05-05 20:47 | 13.25908 | -75.10655 | 29917 ft | 459 kts | 341° |
| 2026-05-05 20:47 | 13.30990 | -75.12253 | 29914 ft | 459 kts | 342° |
| 2026-05-05 20:48 | 13.38137 | -75.14500 | 29918 ft | 459 kts | 342° |
| 2026-05-05 20:48 | 13.44209 | -75.16411 | 29923 ft | 459 kts | 342° |
| 2026-05-05 20:49 | 13.50326 | -75.18337 | 29918 ft | 460 kts | 341° |
| 2026-05-05 20:49 | 13.56449 | -75.20266 | 29921 ft | 460 kts | 341° |
| 2026-05-05 20:50 | 13.61545 | -75.21872 | 29920 ft | 460 kts | 342° |
| 2026-05-05 20:50 | 13.65836 | -75.23225 | 29922 ft | 460 kts | 342° |
| 2026-05-05 20:51 | 13.71967 | -75.25159 | 29921 ft | 460 kts | 341° |
| 2026-05-05 20:51 | 13.78070 | -75.27085 | 29923 ft | 461 kts | 342° |
| 2026-05-05 20:52 | 13.84197 | -75.29021 | 29922 ft | 461 kts | 341° |
| 2026-05-05 20:52 | 13.89298 | -75.30632 | 29924 ft | 461 kts | 341° |
| 2026-05-05 20:53 | 13.95421 | -75.32568 | 29921 ft | 461 kts | 341° |
| 2026-05-05 20:53 | 14.01551 | -75.34506 | 29927 ft | 461 kts | 341° |
| 2026-05-05 20:54 | 14.08687 | -75.36765 | 29928 ft | 461 kts | 341° |
| 2026-05-05 20:54 | 14.13784 | -75.38379 | 29930 ft | 461 kts | 341° |
| 2026-05-05 20:55 | 14.19923 | -75.40324 | 29932 ft | 461 kts | 341° |
| 2026-05-05 20:55 | 14.26057 | -75.42269 | 29927 ft | 461 kts | 341° |
| 2026-05-05 20:56 | 14.32191 | -75.44214 | 29933 ft | 461 kts | 341° |
| 2026-05-05 20:56 | 14.38319 | -75.46159 | 29929 ft | 461 kts | 341° |
| 2026-05-05 20:57 | 14.44440 | -75.48103 | 29931 ft | 460 kts | 341° |
| 2026-05-05 20:57 | 14.50561 | -75.50048 | 29934 ft | 460 kts | 341° |
| 2026-05-05 20:58 | 14.53079 | -75.50848 | 29934 ft | 460 kts | 341° |
| 2026-05-05 20:58 | 14.58376 | -75.52532 | 29940 ft | 459 kts | 342° |
| 2026-05-05 20:59 | 14.64497 | -75.54479 | 29935 ft | 459 kts | 342° |
| 2026-05-05 20:59 | 14.70616 | -75.56427 | 29937 ft | 459 kts | 342° |
| 2026-05-05 21:00 | 14.76689 | -75.58362 | 29942 ft | 459 kts | 342° |
| 2026-05-05 21:00 | 14.82793 | -75.60308 | 29942 ft | 459 kts | 342° |
| 2026-05-05 21:01 | 14.88898 | -75.62255 | 29943 ft | 459 kts | 342° |
| 2026-05-05 21:01 | 14.95003 | -75.64204 | 29942 ft | 459 kts | 342° |
| 2026-05-05 21:02 | 15.01101 | -75.66151 | 29948 ft | 458 kts | 342° |
| 2026-05-05 21:02 | 15.07195 | -75.68102 | 29951 ft | 458 kts | 342° |
| 2026-05-05 21:03 | 15.13285 | -75.70056 | 29945 ft | 458 kts | 342° |
| 2026-05-05 21:03 | 15.19337 | -75.71999 | 29950 ft | 458 kts | 342° |
| 2026-05-05 21:04 | 15.25438 | -75.73958 | 29953 ft | 458 kts | 342° |
| 2026-05-05 21:04 | 15.31525 | -75.75914 | 29952 ft | 458 kts | 342° |
| 2026-05-05 21:05 | 15.37616 | -75.77872 | 29957 ft | 458 kts | 342° |
| 2026-05-05 21:05 | 15.41004 | -75.78962 | 29954 ft | 458 kts | 342° |
| 2026-05-05 21:06 | 15.47094 | -75.80922 | 29961 ft | 458 kts | 342° |
| 2026-05-05 21:06 | 15.53145 | -75.82871 | 29958 ft | 458 kts | 342° |
| 2026-05-05 21:07 | 15.59248 | -75.84837 | 29958 ft | 458 kts | 342° |
| 2026-05-05 21:07 | 15.65339 | -75.86801 | 29962 ft | 458 kts | 342° |
| 2026-05-05 21:08 | 15.71436 | -75.88768 | 29963 ft | 459 kts | 342° |
| 2026-05-05 21:08 | 15.77543 | -75.90740 | 29964 ft | 459 kts | 342° |
| 2026-05-05 21:09 | 15.83602 | -75.92697 | 29964 ft | 459 kts | 342° |
| 2026-05-05 21:09 | 15.89713 | -75.94673 | 29966 ft | 460 kts | 342° |
| 2026-05-05 21:10 | 15.95834 | -75.96653 | 29962 ft | 460 kts | 342° |
| 2026-05-05 21:10 | 16.01953 | -75.98633 | 29967 ft | 461 kts | 342° |
| 2026-05-05 21:11 | 16.08086 | -76.00619 | 29965 ft | 461 kts | 342° |
| 2026-05-05 21:11 | 16.14176 | -76.02593 | 29969 ft | 461 kts | 342° |
| 2026-05-05 21:12 | 16.20314 | -76.04583 | 29967 ft | 461 kts | 342° |
| 2026-05-05 21:12 | 16.26452 | -76.06575 | 29968 ft | 461 kts | 342° |
| 2026-05-05 21:13 | 16.29727 | -76.07638 | 29968 ft | 461 kts | 342° |
| 2026-05-05 21:13 | 16.35823 | -76.09619 | 29973 ft | 461 kts | 342° |
| 2026-05-05 21:14 | 16.41966 | -76.11615 | 29970 ft | 461 kts | 342° |
| 2026-05-05 21:14 | 16.48091 | -76.13607 | 29968 ft | 460 kts | 342° |
| 2026-05-05 21:15 | 16.54167 | -76.15585 | 29976 ft | 460 kts | 342° |
| 2026-05-05 21:15 | 16.60277 | -76.17575 | 29973 ft | 459 kts | 342° |
| 2026-05-05 21:16 | 16.66371 | -76.19561 | 29974 ft | 458 kts | 342° |
| 2026-05-05 21:16 | 16.72445 | -76.21542 | 29973 ft | 457 kts | 342° |
| 2026-05-05 21:17 | 16.78504 | -76.23520 | 29976 ft | 456 kts | 342° |
| 2026-05-05 21:17 | 16.84555 | -76.25496 | 29971 ft | 455 kts | 342° |
| 2026-05-05 21:18 | 16.90561 | -76.27459 | 29982 ft | 454 kts | 342° |
| 2026-05-05 21:18 | 16.96587 | -76.29443 | 29978 ft | 454 kts | 342° |
| 2026-05-05 21:19 | 17.02608 | -76.31441 | 29980 ft | 453 kts | 342° |
| 2026-05-05 21:19 | 17.08624 | -76.33441 | 29977 ft | 453 kts | 342° |
| 2026-05-05 21:20 | 17.14632 | -76.35438 | 29977 ft | 453 kts | 342° |
| 2026-05-05 21:20 | 17.17075 | -76.36249 | 29974 ft | 453 kts | 342° |
| 2026-05-05 21:21 | 17.23053 | -76.38236 | 29977 ft | 453 kts | 342° |
| 2026-05-05 21:21 | 17.29068 | -76.40237 | 29976 ft | 454 kts | 342° |
| 2026-05-05 21:22 | 17.35080 | -76.42238 | 29975 ft | 454 kts | 342° |
| 2026-05-05 21:22 | 17.41096 | -76.44242 | 29973 ft | 454 kts | 342° |
| 2026-05-05 21:23 | 17.47113 | -76.46247 | 29973 ft | 453 kts | 342° |
| 2026-05-05 21:23 | 17.53131 | -76.48254 | 29975 ft | 453 kts | 342° |
| 2026-05-05 21:24 | 17.59138 | -76.50259 | 29972 ft | 453 kts | 342° |
| 2026-05-05 21:24 | 17.65150 | -76.52267 | 29971 ft | 452 kts | 342° |
| 2026-05-05 21:25 | 17.71116 | -76.54262 | 29974 ft | 452 kts | 342° |
| 2026-05-05 21:25 | 17.77108 | -76.56266 | 29970 ft | 452 kts | 342° |
| 2026-05-05 21:26 | 17.83096 | -76.58270 | 29970 ft | 451 kts | 342° |
| 2026-05-05 21:26 | 17.89079 | -76.60274 | 29975 ft | 451 kts | 342° |
| 2026-05-05 21:27 | 17.95016 | -76.62264 | 29969 ft | 450 kts | 342° |
| 2026-05-05 21:27 | 18.00995 | -76.64269 | 29965 ft | 449 kts | 342° |
| 2026-05-05 21:28 | 18.04225 | -76.65353 | 29972 ft | 449 kts | 342° |
| 2026-05-05 21:28 | 18.10136 | -76.67338 | 29966 ft | 448 kts | 342° |
| 2026-05-05 21:29 | 18.16091 | -76.69339 | 29976 ft | 449 kts | 342° |
| 2026-05-05 21:29 | 18.22052 | -76.71344 | 29983 ft | 450 kts | 342° |
| 2026-05-05 21:30 | 18.28024 | -76.73353 | 29980 ft | 451 kts | 342° |
| 2026-05-05 21:30 | 18.33997 | -76.75364 | 29986 ft | 450 kts | 342° |
| 2026-05-05 21:31 | 18.39972 | -76.77378 | 29984 ft | 450 kts | 342° |
| 2026-05-05 21:31 | 18.45940 | -76.79391 | 29984 ft | 450 kts | 342° |
| 2026-05-05 21:32 | 18.51879 | -76.81395 | 29985 ft | 450 kts | 342° |
| 2026-05-05 21:32 | 18.57848 | -76.83411 | 29984 ft | 449 kts | 342° |
| 2026-05-05 21:33 | 18.63806 | -76.85425 | 29990 ft | 449 kts | 342° |
| 2026-05-05 21:33 | 18.69717 | -76.87424 | 29984 ft | 449 kts | 342° |
| 2026-05-05 21:34 | 18.75666 | -76.89438 | 29984 ft | 449 kts | 342° |
| 2026-05-05 21:34 | 18.81611 | -76.91451 | 29991 ft | 449 kts | 342° |
| 2026-05-05 21:35 | 18.87554 | -76.93466 | 29991 ft | 448 kts | 342° |
| 2026-05-05 21:35 | 18.89484 | -76.94121 | 29994 ft | 448 kts | 342° |
| 2026-05-05 21:36 | 18.95423 | -76.96136 | 29994 ft | 448 kts | 342° |
| 2026-05-05 21:36 | 19.01372 | -76.98156 | 30006 ft | 450 kts | 342° |
| 2026-05-05 21:37 | 19.04362 | -76.99172 | 30126 ft | 451 kts | 342° |
| 2026-05-05 21:37 | 19.07344 | -77.00186 | 30346 ft | 449 kts | 342° |
| 2026-05-05 21:37 | 19.10276 | -77.01183 | 30592 ft | 446 kts | 342° |
| 2026-05-05 21:37 | 19.13226 | -77.02186 | 30794 ft | 446 kts | 342° |
| 2026-05-05 21:38 | 19.16185 | -77.03193 | 30945 ft | 446 kts | 342° |
| 2026-05-05 21:38 | 19.19141 | -77.04200 | 31120 ft | 446 kts | 342° |
| 2026-05-05 21:38 | 19.22087 | -77.05203 | 31353 ft | 445 kts | 342° |
| 2026-05-05 21:38 | 19.25034 | -77.06207 | 31581 ft | 443 kts | 342° |
| 2026-05-05 21:39 | 19.27969 | -77.07208 | 31809 ft | 442 kts | 342° |
| 2026-05-05 21:39 | 19.30898 | -77.08207 | 32018 ft | 442 kts | 342° |
| 2026-05-05 21:39 | 19.33828 | -77.09206 | 32233 ft | 441 kts | 342° |
| 2026-05-05 21:39 | 19.36764 | -77.10158 | 32464 ft | 440 kts | 343° |
| 2026-05-05 21:40 | 19.39708 | -77.11024 | 32700 ft | 439 kts | 344° |
| 2026-05-05 21:40 | 19.42621 | -77.11847 | 32954 ft | 438 kts | 345° |
| 2026-05-05 21:40 | 19.45567 | -77.12676 | 33177 ft | 438 kts | 344° |
| 2026-05-05 21:40 | 19.48508 | -77.13511 | 33372 ft | 438 kts | 344° |
| 2026-05-05 21:41 | 19.51458 | -77.14358 | 33592 ft | 437 kts | 344° |
| 2026-05-05 21:41 | 19.54386 | -77.15207 | 33832 ft | 435 kts | 344° |
| 2026-05-05 21:41 | 19.57302 | -77.16056 | 33998 ft | 433 kts | 344° |
| 2026-05-05 21:41 | 19.60220 | -77.16908 | 33991 ft | 435 kts | 344° |
| 2026-05-05 21:42 | 19.66032 | -77.18608 | 34005 ft | 436 kts | 344° |
| 2026-05-05 21:42 | 19.71877 | -77.20317 | 34005 ft | 435 kts | 344° |
| 2026-05-05 21:43 | 19.74003 | -77.20939 | 34002 ft | 435 kts | 344° |
| 2026-05-05 21:43 | 19.80798 | -77.22927 | 34002 ft | 435 kts | 344° |
| 2026-05-05 21:44 | 19.85656 | -77.24349 | 33997 ft | 434 kts | 344° |
| 2026-05-05 21:44 | 19.91493 | -77.26055 | 34002 ft | 434 kts | 344° |
| 2026-05-05 21:45 | 19.97323 | -77.27759 | 34011 ft | 434 kts | 344° |
| 2026-05-05 21:45 | 20.03117 | -77.29454 | 34006 ft | 434 kts | 344° |
| 2026-05-05 21:46 | 20.08947 | -77.31162 | 34001 ft | 434 kts | 343° |
| 2026-05-05 21:46 | 20.14781 | -77.32872 | 34006 ft | 434 kts | 343° |
| 2026-05-05 21:47 | 20.20580 | -77.34573 | 33992 ft | 434 kts | 343° |
| 2026-05-05 21:47 | 20.26404 | -77.36283 | 33991 ft | 434 kts | 343° |
| 2026-05-05 21:48 | 20.32225 | -77.37993 | 33992 ft | 433 kts | 343° |
| 2026-05-05 21:48 | 20.38046 | -77.39705 | 33996 ft | 433 kts | 343° |
| 2026-05-05 21:49 | 20.43853 | -77.41414 | 33986 ft | 433 kts | 343° |
| 2026-05-05 21:49 | 20.49660 | -77.43125 | 33998 ft | 433 kts | 343° |
| 2026-05-05 21:50 | 20.55471 | -77.44837 | 34002 ft | 433 kts | 343° |
| 2026-05-05 21:50 | 20.58319 | -77.45664 | 33993 ft | 433 kts | 343° |
| 2026-05-05 21:51 | 20.64142 | -77.47332 | 33992 ft | 433 kts | 344° |
| 2026-05-05 21:51 | 20.69965 | -77.49000 | 34000 ft | 433 kts | 344° |
| 2026-05-05 21:52 | 20.78707 | -77.51514 | 34005 ft | 433 kts | 343° |
| 2026-05-05 21:53 | 20.84539 | -77.53195 | 34000 ft | 433 kts | 343° |
| 2026-05-05 21:53 | 20.90324 | -77.54863 | 34004 ft | 433 kts | 343° |
| 2026-05-05 21:54 | 20.96154 | -77.56546 | 34000 ft | 433 kts | 343° |
| 2026-05-05 21:54 | 21.01966 | -77.58223 | 34013 ft | 432 kts | 343° |
| 2026-05-05 21:55 | 21.07788 | -77.59892 | 34013 ft | 432 kts | 343° |
| 2026-05-05 21:55 | 21.13556 | -77.61547 | 34021 ft | 432 kts | 343° |
| 2026-05-05 21:56 | 21.19366 | -77.63215 | 34015 ft | 431 kts | 343° |
| 2026-05-05 21:56 | 21.25162 | -77.64882 | 34027 ft | 431 kts | 343° |
| 2026-05-05 21:57 | 21.30956 | -77.66550 | 34017 ft | 429 kts | 343° |
| 2026-05-05 21:57 | 21.36684 | -77.68201 | 34021 ft | 428 kts | 343° |
| 2026-05-05 21:58 | 21.40546 | -77.69314 | 34020 ft | 428 kts | 343° |
| 2026-05-05 21:58 | 21.45556 | -77.70760 | 34026 ft | 428 kts | 343° |
| 2026-05-05 21:59 | 21.51301 | -77.72418 | 34011 ft | 427 kts | 343° |
| 2026-05-05 21:59 | 21.57007 | -77.74067 | 34021 ft | 426 kts | 343° |
| 2026-05-05 22:00 | 21.62750 | -77.75728 | 34030 ft | 426 kts | 343° |
| 2026-05-05 22:00 | 21.68481 | -77.77387 | 34015 ft | 427 kts | 343° |
| 2026-05-05 22:01 | 21.74190 | -77.79041 | 34022 ft | 427 kts | 343° |
| 2026-05-05 22:01 | 21.79941 | -77.80708 | 34017 ft | 427 kts | 343° |
| 2026-05-05 22:02 | 21.85678 | -77.82373 | 34014 ft | 427 kts | 343° |
| 2026-05-05 22:02 | 21.91433 | -77.84043 | 34017 ft | 427 kts | 343° |
| 2026-05-05 22:03 | 21.97176 | -77.85700 | 34022 ft | 427 kts | 343° |
| 2026-05-05 22:03 | 22.02885 | -77.87348 | 34010 ft | 427 kts | 343° |
| 2026-05-05 22:04 | 22.08629 | -77.89007 | 34014 ft | 427 kts | 343° |
| 2026-05-05 22:04 | 22.14378 | -77.90670 | 34027 ft | 427 kts | 343° |
| 2026-05-05 22:05 | 22.20120 | -77.92334 | 34024 ft | 427 kts | 343° |
| 2026-05-05 22:05 | 22.23920 | -77.93435 | 34020 ft | 427 kts | 343° |
| 2026-05-05 22:06 | 22.28968 | -77.94900 | 34021 ft | 427 kts | 342° |
| 2026-05-05 22:06 | 22.34706 | -77.96565 | 34018 ft | 427 kts | 342° |
| 2026-05-05 22:07 | 22.40438 | -77.98229 | 34021 ft | 427 kts | 342° |
| 2026-05-05 22:07 | 22.46177 | -77.99895 | 34021 ft | 427 kts | 342° |
| 2026-05-05 22:08 | 22.51909 | -78.01561 | 34020 ft | 427 kts | 342° |
| 2026-05-05 22:08 | 22.57651 | -78.03232 | 34022 ft | 427 kts | 342° |
| 2026-05-05 22:09 | 22.63393 | -78.04904 | 34022 ft | 427 kts | 342° |
| 2026-05-05 22:09 | 22.69103 | -78.06569 | 34022 ft | 427 kts | 342° |
| 2026-05-05 22:10 | 22.74850 | -78.08246 | 34021 ft | 427 kts | 342° |
| 2026-05-05 22:10 | 22.80596 | -78.09927 | 34021 ft | 428 kts | 342° |
| 2026-05-05 22:11 | 22.86351 | -78.11643 | 34022 ft | 428 kts | 342° |
| 2026-05-05 22:11 | 22.92061 | -78.13354 | 34017 ft | 428 kts | 342° |
| 2026-05-05 22:12 | 22.97818 | -78.15079 | 34019 ft | 429 kts | 342° |
| 2026-05-05 22:12 | 23.03581 | -78.16804 | 34017 ft | 429 kts | 342° |
| 2026-05-05 22:13 | 23.07439 | -78.17960 | 34017 ft | 429 kts | 342° |
| 2026-05-05 22:13 | 23.12428 | -78.19456 | 34020 ft | 430 kts | 342° |
| 2026-05-05 22:14 | 23.18202 | -78.21188 | 34020 ft | 430 kts | 341° |
| 2026-05-05 22:14 | 23.23984 | -78.22924 | 34021 ft | 431 kts | 341° |
| 2026-05-05 22:15 | 23.29790 | -78.24669 | 34016 ft | 431 kts | 341° |
| 2026-05-05 22:15 | 23.35560 | -78.26405 | 34015 ft | 432 kts | 341° |
| 2026-05-05 22:16 | 23.41353 | -78.28149 | 34016 ft | 432 kts | 341° |
| 2026-05-05 22:16 | 23.47151 | -78.29896 | 34018 ft | 432 kts | 341° |
| 2026-05-05 22:17 | 23.52961 | -78.31649 | 34012 ft | 432 kts | 341° |
| 2026-05-05 22:17 | 23.58734 | -78.33392 | 34016 ft | 432 kts | 341° |
| 2026-05-05 22:18 | 23.64513 | -78.35138 | 34013 ft | 432 kts | 341° |
| 2026-05-05 22:18 | 23.70323 | -78.36896 | 34015 ft | 433 kts | 341° |
| 2026-05-05 22:19 | 23.76127 | -78.38653 | 34017 ft | 433 kts | 340° |
| 2026-05-05 22:19 | 23.81907 | -78.40405 | 34016 ft | 433 kts | 340° |
| 2026-05-05 22:20 | 23.87715 | -78.42167 | 34017 ft | 433 kts | 340° |
| 2026-05-05 22:20 | 23.90621 | -78.43049 | 34011 ft | 433 kts | 340° |
| 2026-05-05 22:21 | 23.96406 | -78.44807 | 34012 ft | 433 kts | 340° |
| 2026-05-05 22:21 | 24.01884 | -78.47371 | 34016 ft | 426 kts | 325° |
| 2026-05-05 22:22 | 24.06658 | -78.51092 | 34013 ft | 424 kts | 321° |
| 2026-05-05 22:22 | 24.11414 | -78.54930 | 34012 ft | 425 kts | 321° |
| 2026-05-05 22:23 | 24.16186 | -78.58758 | 34012 ft | 426 kts | 321° |
| 2026-05-05 22:23 | 24.20977 | -78.62584 | 34015 ft | 426 kts | 321° |
| 2026-05-05 22:24 | 24.25778 | -78.66414 | 34014 ft | 427 kts | 321° |
| 2026-05-05 22:24 | 24.30581 | -78.70247 | 34016 ft | 427 kts | 321° |
| 2026-05-05 22:25 | 24.35383 | -78.74083 | 34011 ft | 427 kts | 320° |
| 2026-05-05 22:25 | 24.40190 | -78.77928 | 34017 ft | 427 kts | 320° |
| 2026-05-05 22:26 | 24.44956 | -78.81744 | 34017 ft | 427 kts | 320° |
| 2026-05-05 22:26 | 24.49754 | -78.85590 | 34018 ft | 427 kts | 320° |
| 2026-05-05 22:27 | 24.54551 | -78.89437 | 34014 ft | 427 kts | 320° |
| 2026-05-05 22:27 | 24.59347 | -78.93289 | 34014 ft | 427 kts | 320° |
| 2026-05-05 22:28 | 24.61741 | -78.95212 | 34014 ft | 427 kts | 320° |
| 2026-05-05 22:28 | 24.66757 | -78.99246 | 34011 ft | 427 kts | 320° |
| 2026-05-05 22:29 | 24.71550 | -79.03104 | 34012 ft | 426 kts | 320° |
| 2026-05-05 22:29 | 24.76342 | -79.06965 | 34010 ft | 426 kts | 320° |
| 2026-05-05 22:30 | 24.81102 | -79.10804 | 34015 ft | 426 kts | 320° |
| 2026-05-05 22:30 | 24.85892 | -79.14672 | 34012 ft | 426 kts | 320° |
| 2026-05-05 22:31 | 24.90677 | -79.18538 | 34012 ft | 426 kts | 320° |
| 2026-05-05 22:31 | 24.95430 | -79.22383 | 34012 ft | 426 kts | 320° |
| 2026-05-05 22:32 | 25.00205 | -79.26250 | 34018 ft | 426 kts | 319° |
| 2026-05-05 22:32 | 25.04990 | -79.30128 | 34012 ft | 426 kts | 320° |
| 2026-05-05 22:33 | 25.09762 | -79.34000 | 34012 ft | 426 kts | 319° |
| 2026-05-05 22:33 | 25.14507 | -79.37854 | 34015 ft | 425 kts | 319° |
| 2026-05-05 22:34 | 25.19277 | -79.41731 | 34015 ft | 425 kts | 319° |
| 2026-05-05 22:34 | 25.23237 | -79.44953 | 34013 ft | 425 kts | 319° |
| 2026-05-05 22:35 | 25.27994 | -79.48829 | 34025 ft | 425 kts | 319° |
| 2026-05-05 22:35 | 25.31181 | -79.51427 | 34015 ft | 425 kts | 319° |
| 2026-05-05 22:36 | 25.35329 | -79.54811 | 34020 ft | 425 kts | 319° |
| 2026-05-05 22:36 | 25.40088 | -79.58696 | 34015 ft | 425 kts | 319° |
| 2026-05-05 22:37 | 25.44816 | -79.62550 | 34018 ft | 425 kts | 319° |
| 2026-05-05 22:37 | 25.49585 | -79.66438 | 34016 ft | 425 kts | 319° |
| 2026-05-05 22:38 | 25.54344 | -79.70324 | 34022 ft | 425 kts | 319° |
| 2026-05-05 22:38 | 25.59114 | -79.74223 | 34017 ft | 426 kts | 319° |
| 2026-05-05 22:39 | 25.63851 | -79.78100 | 34022 ft | 426 kts | 319° |
| 2026-05-05 22:39 | 25.68621 | -79.82008 | 34020 ft | 426 kts | 319° |
| 2026-05-05 22:40 | 25.73395 | -79.85923 | 34025 ft | 427 kts | 319° |
| 2026-05-05 22:40 | 25.78168 | -79.89841 | 34017 ft | 427 kts | 319° |
| 2026-05-05 22:41 | 25.82958 | -79.93777 | 34024 ft | 427 kts | 318° |
| 2026-05-05 22:41 | 25.87705 | -79.97682 | 34018 ft | 427 kts | 318° |
| 2026-05-05 22:42 | 25.92478 | -80.01613 | 34026 ft | 427 kts | 318° |
| 2026-05-05 22:42 | 25.97253 | -80.05549 | 34019 ft | 427 kts | 318° |
| 2026-05-05 22:43 | 26.00450 | -80.08187 | 34021 ft | 428 kts | 318° |
| 2026-05-05 22:43 | 26.04720 | -80.11714 | 34021 ft | 428 kts | 318° |
| 2026-05-05 22:44 | 26.09507 | -80.15670 | 34023 ft | 428 kts | 318° |
| 2026-05-05 22:44 | 26.14290 | -80.19556 | 34025 ft | 431 kts | 322° |
| 2026-05-05 22:45 | 26.19762 | -80.22467 | 34047 ft | 440 kts | 332° |
| 2026-05-05 22:45 | 26.25487 | -80.24929 | 34032 ft | 441 kts | 332° |
| 2026-05-05 22:46 | 26.31210 | -80.27400 | 34030 ft | 440 kts | 332° |
| 2026-05-05 22:46 | 26.36888 | -80.29886 | 34031 ft | 440 kts | 332° |
| 2026-05-05 22:47 | 26.42583 | -80.32397 | 34032 ft | 440 kts | 332° |
| 2026-05-05 22:47 | 26.48281 | -80.34916 | 34022 ft | 440 kts | 332° |
| 2026-05-05 22:48 | 26.53977 | -80.37435 | 34041 ft | 440 kts | 332° |
| 2026-05-05 22:48 | 26.59668 | -80.39955 | 34036 ft | 440 kts | 332° |
| 2026-05-05 22:49 | 26.65367 | -80.42481 | 34044 ft | 441 kts | 332° |
| 2026-05-05 22:49 | 26.71083 | -80.45017 | 34029 ft | 442 kts | 332° |
| 2026-05-05 22:50 | 26.76800 | -80.47556 | 34033 ft | 442 kts | 332° |
| 2026-05-05 22:50 | 26.80487 | -80.49195 | 34029 ft | 443 kts | 332° |
| 2026-05-05 22:51 | 26.85668 | -80.51500 | 34033 ft | 443 kts | 331° |
| 2026-05-05 22:51 | 26.91406 | -80.54055 | 34032 ft | 444 kts | 332° |
| 2026-05-05 22:52 | 26.97149 | -80.56616 | 34037 ft | 445 kts | 331° |
| 2026-05-05 22:52 | 27.02907 | -80.59186 | 34032 ft | 445 kts | 331° |
| 2026-05-05 22:53 | 27.08669 | -80.61760 | 34039 ft | 445 kts | 331° |
| 2026-05-05 22:53 | 27.14434 | -80.64339 | 34036 ft | 446 kts | 331° |
| 2026-05-05 22:54 | 27.20156 | -80.66901 | 34038 ft | 445 kts | 331° |
| 2026-05-05 22:54 | 27.25917 | -80.69483 | 34034 ft | 445 kts | 331° |
| 2026-05-05 22:55 | 27.31670 | -80.72066 | 34034 ft | 445 kts | 331° |
| 2026-05-05 22:55 | 27.37426 | -80.74652 | 34036 ft | 445 kts | 331° |
| 2026-05-05 22:56 | 27.43165 | -80.77233 | 34045 ft | 444 kts | 331° |
| 2026-05-05 22:56 | 27.48906 | -80.79819 | 34038 ft | 444 kts | 331° |
| 2026-05-05 22:57 | 27.54638 | -80.82403 | 34044 ft | 444 kts | 331° |
| 2026-05-05 22:57 | 27.60333 | -80.84974 | 34039 ft | 443 kts | 331° |
| 2026-05-05 22:58 | 27.63837 | -80.86557 | 34043 ft | 443 kts | 331° |
| 2026-05-05 22:58 | 27.69266 | -80.89012 | 34040 ft | 443 kts | 331° |
| 2026-05-05 22:59 | 27.74995 | -80.91606 | 34048 ft | 443 kts | 331° |
| 2026-05-05 22:59 | 27.80664 | -80.94201 | 34038 ft | 440 kts | 328° |
| 2026-05-05 23:00 | 27.87972 | -81.00037 | 34046 ft | 426 kts | 314° |
| 2026-05-05 23:00 | 27.92468 | -81.04419 | 34042 ft | 427 kts | 314° |
| 2026-05-05 23:01 | 27.96969 | -81.08747 | 34049 ft | 427 kts | 314° |
| 2026-05-05 23:01 | 28.01518 | -81.13104 | 34047 ft | 427 kts | 315° |
| 2026-05-05 23:02 | 28.06567 | -81.16789 | 34052 ft | 439 kts | 329° |
| 2026-05-05 23:02 | 28.12158 | -81.19604 | 34052 ft | 440 kts | 330° |
| 2026-05-05 23:03 | 28.17752 | -81.22426 | 34059 ft | 440 kts | 329° |
| 2026-05-05 23:03 | 28.23292 | -81.25268 | 34063 ft | 440 kts | 329° |
| 2026-05-05 23:04 | 28.28860 | -81.28142 | 34064 ft | 439 kts | 329° |
| 2026-05-05 23:04 | 28.34405 | -81.31004 | 34057 ft | 437 kts | 329° |
| 2026-05-05 23:05 | 28.39954 | -81.33841 | 34061 ft | 435 kts | 330° |
| 2026-05-05 23:05 | 28.42205 | -81.34987 | 34052 ft | 435 kts | 330° |
| 2026-05-05 23:06 | 28.47687 | -81.37781 | 34057 ft | 433 kts | 330° |
| 2026-05-05 23:06 | 28.53187 | -81.40592 | 34058 ft | 433 kts | 330° |
| 2026-05-05 23:07 | 28.58686 | -81.43408 | 34056 ft | 432 kts | 330° |
| 2026-05-05 23:07 | 28.64168 | -81.46218 | 34059 ft | 432 kts | 330° |
| 2026-05-05 23:08 | 28.69609 | -81.49011 | 34053 ft | 431 kts | 330° |
| 2026-05-05 23:08 | 28.75088 | -81.51827 | 34059 ft | 431 kts | 330° |
| 2026-05-05 23:09 | 28.80568 | -81.54646 | 34049 ft | 431 kts | 330° |
| 2026-05-05 23:09 | 28.86040 | -81.57464 | 34046 ft | 431 kts | 330° |
| 2026-05-05 23:10 | 28.91531 | -81.60158 | 34040 ft | 436 kts | 336° |
| 2026-05-05 23:10 | 28.97557 | -81.61470 | 34056 ft | 447 kts | 348° |
| 2026-05-05 23:11 | 29.03780 | -81.61990 | 34043 ft | 448 kts | 349° |
| 2026-05-05 23:11 | 29.10001 | -81.62503 | 34055 ft | 448 kts | 349° |
| 2026-05-05 23:12 | 29.16218 | -81.63055 | 34051 ft | 447 kts | 348° |
| 2026-05-05 23:12 | 29.22382 | -81.63621 | 34054 ft | 447 kts | 348° |
| 2026-05-05 23:13 | 29.25805 | -81.63937 | 34053 ft | 447 kts | 348° |
| 2026-05-05 23:13 | 29.32010 | -81.64511 | 34053 ft | 446 kts | 348° |
| 2026-05-05 23:14 | 29.38202 | -81.65082 | 34058 ft | 446 kts | 348° |
| 2026-05-05 23:14 | 29.44354 | -81.65651 | 34057 ft | 445 kts | 348° |
| 2026-05-05 23:15 | 29.50525 | -81.66221 | 34062 ft | 445 kts | 348° |
| 2026-05-05 23:15 | 29.56686 | -81.66792 | 34059 ft | 444 kts | 348° |
| 2026-05-05 23:16 | 29.62848 | -81.67363 | 34058 ft | 443 kts | 348° |
| 2026-05-05 23:16 | 29.68999 | -81.67934 | 34063 ft | 443 kts | 348° |
| 2026-05-05 23:17 | 29.75136 | -81.68501 | 34067 ft | 442 kts | 348° |
| 2026-05-05 23:17 | 29.81264 | -81.69065 | 34068 ft | 441 kts | 348° |
| 2026-05-05 23:18 | 29.87380 | -81.69628 | 34068 ft | 441 kts | 348° |
| 2026-05-05 23:18 | 29.93460 | -81.70190 | 34064 ft | 440 kts | 348° |
| 2026-05-05 23:19 | 29.99562 | -81.70755 | 34059 ft | 439 kts | 348° |
| 2026-05-05 23:19 | 30.05650 | -81.71318 | 34066 ft | 439 kts | 347° |
| 2026-05-05 23:20 | 30.10715 | -81.71788 | 34065 ft | 439 kts | 347° |
| 2026-05-05 23:20 | 30.14904 | -81.72177 | 34070 ft | 438 kts | 347° |
| 2026-05-05 23:21 | 30.20986 | -81.72742 | 34070 ft | 438 kts | 347° |
| 2026-05-05 23:21 | 30.27059 | -81.73307 | 34063 ft | 437 kts | 347° |
| 2026-05-05 23:22 | 30.33122 | -81.73872 | 34081 ft | 437 kts | 347° |
| 2026-05-05 23:22 | 30.39139 | -81.74433 | 34060 ft | 436 kts | 347° |
| 2026-05-05 23:23 | 30.45228 | -81.75002 | 34054 ft | 436 kts | 347° |
| 2026-05-05 23:23 | 30.51236 | -81.75563 | 34061 ft | 435 kts | 347° |
| 2026-05-05 23:24 | 30.56259 | -81.76034 | 34051 ft | 435 kts | 347° |
| 2026-05-05 23:24 | 30.62202 | -81.77003 | 34061 ft | 423 kts | 337° |
| 2026-05-05 23:25 | 30.67548 | -81.79534 | 34065 ft | 412 kts | 327° |
| 2026-05-05 23:25 | 30.72608 | -81.82510 | 33822 ft | 402 kts | 329° |
| 2026-05-05 23:26 | 30.77519 | -81.85380 | 33979 ft | 390 kts | 329° |
| 2026-05-05 23:26 | 30.82373 | -81.88205 | 34040 ft | 389 kts | 329° |
| 2026-05-05 23:27 | 30.87198 | -81.91011 | 34050 ft | 390 kts | 329° |
| 2026-05-05 23:27 | 30.92062 | -81.93839 | 34047 ft | 391 kts | 329° |
| 2026-05-05 23:28 | 30.94765 | -81.95411 | 34045 ft | 392 kts | 329° |
| 2026-05-05 23:28 | 30.99623 | -81.98238 | 34046 ft | 393 kts | 329° |
| 2026-05-05 23:29 | 31.04522 | -82.01093 | 34042 ft | 394 kts | 329° |
| 2026-05-05 23:29 | 31.09438 | -82.03961 | 34037 ft | 395 kts | 329° |
| 2026-05-05 23:30 | 31.14348 | -82.06828 | 34039 ft | 395 kts | 329° |
| 2026-05-05 23:30 | 31.19266 | -82.09704 | 34035 ft | 395 kts | 329° |
| 2026-05-05 23:31 | 31.24190 | -82.12586 | 34035 ft | 396 kts | 329° |
| 2026-05-05 23:31 | 31.29113 | -82.15472 | 34035 ft | 396 kts | 329° |
| 2026-05-05 23:32 | 31.34039 | -82.18362 | 34036 ft | 396 kts | 329° |
| 2026-05-05 23:32 | 31.38956 | -82.21251 | 34027 ft | 396 kts | 329° |
| 2026-05-05 23:33 | 31.43846 | -82.24128 | 34027 ft | 396 kts | 329° |
| 2026-05-05 23:33 | 31.48762 | -82.27023 | 34025 ft | 395 kts | 329° |
| 2026-05-05 23:34 | 31.53685 | -82.29925 | 34029 ft | 395 kts | 329° |
| 2026-05-05 23:34 | 31.58605 | -82.32830 | 34026 ft | 395 kts | 329° |
| 2026-05-05 23:35 | 31.63492 | -82.35718 | 34023 ft | 395 kts | 329° |
| 2026-05-05 23:35 | 31.66169 | -82.37302 | 34026 ft | 395 kts | 329° |
| 2026-05-05 23:36 | 31.71080 | -82.40210 | 34030 ft | 395 kts | 329° |
| 2026-05-05 23:36 | 31.75990 | -82.43120 | 34018 ft | 395 kts | 329° |
| 2026-05-05 23:37 | 31.80890 | -82.46029 | 34015 ft | 395 kts | 329° |
| 2026-05-05 23:37 | 31.85792 | -82.48942 | 34012 ft | 394 kts | 329° |
| 2026-05-05 23:38 | 31.90660 | -82.51838 | 34018 ft | 394 kts | 329° |
| 2026-05-05 23:38 | 31.95522 | -82.54820 | 34018 ft | 392 kts | 325° |
| 2026-05-05 23:39 | 31.97772 | -82.56624 | 33782 ft | 391 kts | 319° |
| 2026-05-05 23:39 | 31.99823 | -82.58718 | 33543 ft | 389 kts | 317° |
| 2026-05-05 23:39 | 32.01856 | -82.60814 | 33277 ft | 387 kts | 317° |
| 2026-05-05 23:39 | 32.03890 | -82.62902 | 33027 ft | 388 kts | 317° |
| 2026-05-05 23:40 | 32.05916 | -82.64974 | 32776 ft | 390 kts | 317° |
| 2026-05-05 23:40 | 32.07978 | -82.67081 | 32523 ft | 392 kts | 317° |
| 2026-05-05 23:40 | 32.10046 | -82.69192 | 32279 ft | 394 kts | 317° |
| 2026-05-05 23:40 | 32.12121 | -82.71311 | 32036 ft | 396 kts | 317° |
| 2026-05-05 23:41 | 32.14193 | -82.73427 | 31796 ft | 398 kts | 317° |
| 2026-05-05 23:41 | 32.16295 | -82.75574 | 31556 ft | 400 kts | 317° |
| 2026-05-05 23:41 | 32.18404 | -82.77730 | 31318 ft | 402 kts | 317° |
| 2026-05-05 23:41 | 32.20523 | -82.79899 | 31083 ft | 403 kts | 317° |
| 2026-05-05 23:42 | 32.22647 | -82.82073 | 30847 ft | 405 kts | 317° |
| 2026-05-05 23:42 | 32.24785 | -82.84263 | 30616 ft | 407 kts | 317° |
| 2026-05-05 23:42 | 32.26929 | -82.86461 | 30387 ft | 408 kts | 317° |
| 2026-05-05 23:42 | 32.29076 | -82.88665 | 30154 ft | 410 kts | 317° |
| 2026-05-05 23:43 | 32.31478 | -82.91130 | 29875 ft | 412 kts | 317° |
| 2026-05-05 23:43 | 32.33644 | -82.93355 | 29611 ft | 413 kts | 317° |
| 2026-05-05 23:43 | 32.35822 | -82.95594 | 29350 ft | 414 kts | 317° |
| 2026-05-05 23:44 | 32.38006 | -82.97839 | 29083 ft | 416 kts | 317° |
| 2026-05-05 23:44 | 32.40193 | -83.00089 | 28823 ft | 417 kts | 317° |
| 2026-05-05 23:44 | 32.42387 | -83.02345 | 28567 ft | 419 kts | 317° |
| 2026-05-05 23:44 | 32.44589 | -83.04610 | 28310 ft | 420 kts | 317° |
| 2026-05-05 23:45 | 32.46795 | -83.06883 | 28050 ft | 421 kts | 317° |
| 2026-05-05 23:45 | 32.49013 | -83.09169 | 27801 ft | 423 kts | 317° |
| 2026-05-05 23:45 | 32.51239 | -83.11465 | 27561 ft | 424 kts | 317° |
| 2026-05-05 23:45 | 32.53468 | -83.13766 | 27308 ft | 426 kts | 317° |
| 2026-05-05 23:46 | 32.55682 | -83.16053 | 27064 ft | 428 kts | 317° |
| 2026-05-05 23:46 | 32.57936 | -83.18381 | 26821 ft | 429 kts | 317° |
| 2026-05-05 23:46 | 32.60186 | -83.20709 | 25839 ft | 433 kts | 316° |
| 2026-05-05 23:46 | 32.62462 | -83.23069 | 24833 ft | 435 kts | 316° |
| 2026-05-05 23:47 | 32.64739 | -83.25431 | 24031 ft | 432 kts | 316° |
| 2026-05-05 23:47 | 32.66994 | -83.27773 | 23183 ft | 430 kts | 316° |
| 2026-05-05 23:47 | 32.68883 | -83.29737 | 22470 ft | 426 kts | 316° |
| 2026-05-05 23:47 | 32.71099 | -83.32040 | 21696 ft | 421 kts | 316° |
| 2026-05-05 23:48 | 32.73290 | -83.34321 | 20966 ft | 416 kts | 316° |
| 2026-05-05 23:48 | 32.75457 | -83.36578 | 20249 ft | 412 kts | 316° |
| 2026-05-05 23:48 | 32.77597 | -83.38808 | 19545 ft | 408 kts | 316° |
| 2026-05-05 23:48 | 32.79698 | -83.41000 | 18835 ft | 405 kts | 316° |
| 2026-05-05 23:49 | 32.81810 | -83.43204 | 18116 ft | 402 kts | 316° |
| 2026-05-05 23:49 | 32.83908 | -83.45396 | 17338 ft | 399 kts | 316° |
| 2026-05-05 23:49 | 32.85981 | -83.47562 | 16681 ft | 393 kts | 316° |
| 2026-05-05 23:49 | 32.87987 | -83.49658 | 16560 ft | 375 kts | 316° |
| 2026-05-05 23:50 | 32.89907 | -83.51666 | 16386 ft | 360 kts | 316° |
| 2026-05-05 23:50 | 32.91139 | -83.52955 | 16285 ft | 351 kts | 316° |
| 2026-05-05 23:50 | 32.91946 | -83.53800 | 16219 ft | 345 kts | 316° |
| 2026-05-05 23:50 | 32.93715 | -83.55651 | 16077 ft | 331 kts | 316° |
| 2026-05-05 23:51 | 32.95424 | -83.57443 | 15646 ft | 328 kts | 316° |
| 2026-05-05 23:51 | 32.97140 | -83.59242 | 15142 ft | 328 kts | 316° |
| 2026-05-05 23:51 | 32.98850 | -83.61033 | 14675 ft | 326 kts | 316° |
| 2026-05-05 23:51 | 33.00548 | -83.62813 | 14226 ft | 324 kts | 316° |
| 2026-05-05 23:52 | 33.02222 | -83.64567 | 13801 ft | 322 kts | 316° |
| 2026-05-05 23:52 | 33.03900 | -83.66328 | 13315 ft | 321 kts | 316° |
| 2026-05-05 23:52 | 33.05571 | -83.68082 | 12847 ft | 319 kts | 316° |
| 2026-05-05 23:52 | 33.07229 | -83.69823 | 12438 ft | 315 kts | 315° |
| 2026-05-05 23:53 | 33.08837 | -83.71511 | 12335 ft | 302 kts | 315° |
| 2026-05-05 23:53 | 33.10387 | -83.73139 | 12193 ft | 292 kts | 315° |
| 2026-05-05 23:53 | 33.11881 | -83.74709 | 12077 ft | 281 kts | 315° |
| 2026-05-05 23:53 | 33.13322 | -83.76224 | 11963 ft | 271 kts | 315° |
| 2026-05-05 23:54 | 33.14717 | -83.77694 | 11691 ft | 267 kts | 315° |
| 2026-05-05 23:54 | 33.16105 | -83.79163 | 11374 ft | 265 kts | 315° |
| 2026-05-05 23:54 | 33.17485 | -83.80622 | 11056 ft | 264 kts | 314° |
| 2026-05-05 23:54 | 33.18856 | -83.82072 | 10733 ft | 263 kts | 314° |
| 2026-05-05 23:55 | 33.20179 | -83.83569 | 10404 ft | 261 kts | 311° |
| 2026-05-05 23:55 | 33.21461 | -83.85103 | 10078 ft | 260 kts | 311° |
| 2026-05-05 23:55 | 33.22718 | -83.86619 | 9738 ft | 260 kts | 311° |
| 2026-05-05 23:55 | 33.23988 | -83.88146 | 9397 ft | 259 kts | 311° |
| 2026-05-05 23:56 | 33.25264 | -83.89672 | 9053 ft | 259 kts | 311° |
| 2026-05-05 23:56 | 33.26538 | -83.91195 | 8710 ft | 259 kts | 310° |
| 2026-05-05 23:56 | 33.27813 | -83.92715 | 8376 ft | 258 kts | 310° |
| 2026-05-05 23:56 | 33.29086 | -83.94234 | 8066 ft | 258 kts | 311° |
| 2026-05-05 23:57 | 33.30329 | -83.95716 | 8002 ft | 249 kts | 310° |
| 2026-05-05 23:57 | 33.31568 | -83.97200 | 7946 ft | 256 kts | 310° |
| 2026-05-05 23:57 | 33.32849 | -83.98738 | 7896 ft | 264 kts | 311° |
| 2026-05-05 23:57 | 33.33712 | -83.99771 | 7860 ft | 266 kts | 310° |
| 2026-05-05 23:58 | 33.34283 | -84.00456 | 7832 ft | 266 kts | 311° |
| 2026-05-05 23:58 | 33.35619 | -84.01980 | 7759 ft | 267 kts | 320° |
| 2026-05-05 23:58 | 33.37337 | -84.02867 | 7710 ft | 274 kts | 346° |
| 2026-05-05 23:58 | 33.39248 | -84.03010 | 7674 ft | 275 kts | 355° |
| 2026-05-05 23:59 | 33.41167 | -84.03019 | 7613 ft | 276 kts | 355° |
| 2026-05-05 23:59 | 33.43067 | -84.03037 | 7539 ft | 276 kts | 355° |
| 2026-05-05 23:59 | 33.44983 | -84.03065 | 7479 ft | 276 kts | 355° |
| 2026-05-05 23:59 | 33.46909 | -84.03073 | 7414 ft | 278 kts | 360° |
| 2026-05-06 00:00 | 33.48839 | -84.02791 | 7377 ft | 281 kts | 5° |
| 2026-05-06 00:00 | 33.50145 | -84.02528 | 7340 ft | 282 kts | 6° |
| 2026-05-06 00:00 | 33.52585 | -84.02036 | 7270 ft | 283 kts | 5° |
| 2026-05-06 00:00 | 33.53906 | -84.01785 | 7233 ft | 284 kts | 5° |
| 2026-05-06 00:01 | 33.54755 | -84.01628 | 7211 ft | 285 kts | 5° |
| 2026-05-06 00:01 | 33.56716 | -84.01271 | 7130 ft | 285 kts | 5° |
| 2026-05-06 00:01 | 33.58681 | -84.00951 | 7023 ft | 283 kts | 358° |
| 2026-05-06 00:01 | 33.60556 | -84.01369 | 7004 ft | 270 kts | 330° |
| 2026-05-06 00:02 | 33.61968 | -84.02755 | 6981 ft | 261 kts | 297° |
| 2026-05-06 00:02 | 33.62616 | -84.04716 | 6856 ft | 248 kts | 280° |
| 2026-05-06 00:02 | 33.62938 | -84.06735 | 6576 ft | 245 kts | 275° |
| 2026-05-06 00:02 | 33.63152 | -84.08753 | 6263 ft | 240 kts | 271° |
| 2026-05-06 00:03 | 33.63229 | -84.10728 | 5947 ft | 235 kts | 267° |
| 2026-05-06 00:03 | 33.63238 | -84.12669 | 5641 ft | 229 kts | 266° |
| 2026-05-06 00:03 | 33.63232 | -84.14562 | 5344 ft | 225 kts | 265° |
| 2026-05-06 00:03 | 33.63226 | -84.16378 | 5086 ft | 217 kts | 265° |
| 2026-05-06 00:04 | 33.63221 | -84.18149 | 4792 ft | 207 kts | 265° |
| 2026-05-06 00:04 | 33.63218 | -84.19816 | 4526 ft | 192 kts | 264° |
| 2026-05-06 00:04 | 33.63215 | -84.21357 | 4283 ft | 176 kts | 264° |
| 2026-05-06 00:04 | 33.63212 | -84.22781 | 4040 ft | 166 kts | 264° |
| 2026-05-06 00:05 | 33.63204 | -84.25383 | 3650 ft | 150 kts | 264° |
| 2026-05-06 00:05 | 33.63200 | -84.26632 | 3471 ft | 150 kts | 263° |
| 2026-05-06 00:05 | 33.63196 | -84.27909 | 3264 ft | 155 kts | 264° |
| 2026-05-06 00:06 | 33.63196 | -84.29185 | 3059 ft | 151 kts | 262° |
| 2026-05-06 00:06 | 33.63194 | -84.30453 | 2877 ft | 152 kts | 262° |
| 2026-05-06 00:06 | 33.63192 | -84.31711 | 2666 ft | 149 kts | 263° |
| 2026-05-06 00:06 | 33.63191 | -84.32969 | 2479 ft | 152 kts | 264° |
| 2026-05-06 00:07 | 33.63188 | -84.34228 | 2277 ft | 153 kts | 264° |
| 2026-05-06 00:07 | 33.63188 | -84.35523 | 2088 ft | 157 kts | 264° |
| 2026-05-06 00:07 | 33.63185 | -84.36832 | 1866 ft | 154 kts | 264° |
| 2026-05-06 00:07 | 33.63184 | -84.38072 | 1695 ft | 148 kts | 265° |
| 2026-05-06 00:08 | 33.63194 | -84.39320 | 1303 ft | 155 kts | 266° |
| 2026-05-06 00:08 | 33.63189 | -84.40643 | 1213 ft | 153 kts | 264° |
| 2026-05-06 00:08 | 33.63189 | -84.41870 | 1024 ft | 143 kts | 266° |
| 2026-05-06 00:08 | 33.63181 | -84.42980 | 1006 ft | 114 kts | 271° |
| 2026-05-06 00:09 | 33.63199 | -84.43561 | 1007 ft | 48 kts | 288° |
| 2026-05-06 00:09 | 33.63278 | -84.43748 | 1005 ft | 15 kts | 300° |
| 2026-05-06 00:09 | 33.63355 | -84.43774 | 1005 ft | 13 kts | 43° |
| 2026-05-06 00:09 | 33.63368 | -84.43684 | 1005 ft | 14 kts | 88° |
| 2026-05-06 00:10 | 33.63420 | -84.43604 | 1005 ft | 12 kts | 359° |
| 2026-05-06 00:10 | 33.63532 | -84.43604 | 1005 ft | 21 kts | 357° |
| 2026-05-06 00:10 | 33.63594 | -84.43718 | 1006 ft | 17 kts | 311° |
| 2026-05-06 00:10 | 33.63744 | -84.43778 | 1005 ft | 26 kts | 349° |
| 2026-05-06 00:11 | 33.63872 | -84.43802 | 1005 ft | 12 kts | 310° |
| 2026-05-06 00:11 | 33.63882 | -84.43868 | 1005 ft | 0 kts | 270° |